createdAt,value
2019-04-29T00:04:15.279Z,3.83
2019-04-29T00:09:50.695Z,3.37
2019-04-29T00:15:39.178Z,2.67
2019-04-29T00:21:21.509Z,4.13
2019-04-29T00:26:46.715Z,3.20
2019-04-29T00:32:17.232Z,2.40
2019-04-29T00:38:06.690Z,4.73
2019-04-29T00:43:41.908Z,2.20
2019-04-29T00:49:21.746Z,4.73
2019-04-29T00:55:04.522Z,2.97
2019-04-29T01:00:41.945Z,3.53
2019-04-29T01:06:16.082Z,5.27
2019-04-29T01:11:50.500Z,2.67
2019-04-29T01:17:26.561Z,3.80
2019-04-29T01:23:05.705Z,3.77
2019-04-29T01:28:55.923Z,3.23
2019-04-29T01:34:39.757Z,4.27
2019-04-29T01:46:10.264Z,3.33
2019-04-29T01:51:48.684Z,3.87
2019-04-29T01:57:15.923Z,4.00
2019-04-29T02:02:46.486Z,7.03
2019-04-29T02:08:20.277Z,2.50
2019-04-29T02:13:59.535Z,3.07
2019-04-29T02:19:39.466Z,3.67
2019-04-29T02:25:28.415Z,4.73
2019-04-29T02:31:29.670Z,2.67
2019-04-29T02:37:01.426Z,4.03
2019-04-29T02:42:39.761Z,3.90
2019-04-29T02:48:20.504Z,6.10
2019-04-29T02:53:55.332Z,4.20
2019-04-29T02:59:30.836Z,2.33
2019-04-29T03:05:11.383Z,4.50
2019-04-29T03:10:42.100Z,3.37
2019-04-29T03:16:12.553Z,4.13
2019-04-29T03:21:40.249Z,2.77
2019-04-29T03:27:15.878Z,4.37
2019-04-29T03:32:50.696Z,3.47
2019-04-29T03:38:39.858Z,3.90
2019-04-29T03:44:11.091Z,5.23
2019-04-29T03:49:47.258Z,2.97
2019-04-29T03:55:39.081Z,10.07
2019-04-29T04:00:44.715Z,8.33
2019-04-29T04:06:23.260Z,5.50
2019-04-29T04:12:01.625Z,5.50
2019-04-29T04:17:47.820Z,4.50
2019-04-29T04:23:20.573Z,8.53
2019-04-29T04:28:55.185Z,9.23
2019-04-29T04:34:13.071Z,6.23
2019-04-29T04:39:42.959Z,6.17
2019-04-29T04:45:12.198Z,9.57
2019-04-29T04:50:28.981Z,7.20
2019-04-29T04:56:08.985Z,7.67
2019-04-29T05:01:49.614Z,6.17
2019-04-29T05:07:21.464Z,9.03
2019-04-29T05:12:56.185Z,7.40
2019-04-29T05:18:36.175Z,3.73
2019-04-29T05:24:16.221Z,5.33
2019-04-29T05:29:57.854Z,4.90
2019-04-29T05:35:40.092Z,8.23
2019-04-29T05:41:10.186Z,11.17
2019-04-29T05:47:01.934Z,6.47
2019-04-29T05:53:03.794Z,9.07
2019-04-29T05:58:51.329Z,8.63
2019-04-29T06:04:23.616Z,11.03
2019-04-29T06:10:10.362Z,9.90
2019-04-29T06:15:45.811Z,11.57
2019-04-29T06:21:34.390Z,13.27
2019-04-29T06:27:04.570Z,8.87
2019-04-29T06:38:29.358Z,9.63
2019-04-29T06:44:15.783Z,5.17
2019-04-29T06:49:47.579Z,9.47
2019-04-29T06:55:39.841Z,11.23
2019-04-29T07:01:14.177Z,11.30
2019-04-29T07:06:57.079Z,7.07
2019-04-29T07:12:38.111Z,3.27
2019-04-29T07:18:13.906Z,3.80
2019-04-29T07:23:50.619Z,4.60
2019-04-29T07:29:20.739Z,2.00
2019-04-29T07:34:45.004Z,3.73
2019-04-29T07:40:18.027Z,2.70
2019-04-29T07:46:05.494Z,1.17
2019-04-29T07:51:39.347Z,1.20
2019-04-29T07:57:16.403Z,1.47
2019-04-29T08:03:02.547Z,2.93
2019-04-29T08:08:54.790Z,3.47
2019-04-29T08:14:37.873Z,1.10
2019-04-29T08:20:20.249Z,1.70
2019-04-29T08:26:11.235Z,1.80
2019-04-29T08:31:56.699Z,1.27
2019-04-29T08:37:41.252Z,2.27
2019-04-29T08:43:36.622Z,1.00
2019-04-29T08:49:13.131Z,1.27
2019-04-29T08:54:06.099Z,1.03
2019-04-29T08:59:47.086Z,0.70
2019-04-29T09:05:23.421Z,0.70
2019-04-29T09:10:57.844Z,1.27
2019-04-29T09:16:36.799Z,0.63
2019-04-29T09:21:59.536Z,0.87
2019-04-29T09:27:36.543Z,1.47
2019-04-29T09:33:25.815Z,0.80
2019-04-29T09:38:47.018Z,0.70
2019-04-29T09:44:39.768Z,0.60
2019-04-29T09:50:14.783Z,1.30
2019-04-29T09:55:53.114Z,4.00
2019-04-29T10:01:35.304Z,1.30
2019-04-29T10:06:55.529Z,1.13
2019-04-29T10:12:28.903Z,1.57
2019-04-29T10:18:13.805Z,1.73
2019-04-29T10:23:33.592Z,2.40
2019-04-29T10:29:25.587Z,0.70
2019-04-29T10:34:44.122Z,2.57
2019-04-29T10:40:49.631Z,1.50
2019-04-29T10:46:43.801Z,0.67
2019-04-29T10:52:24.780Z,1.07
2019-04-29T10:57:49.709Z,1.07
2019-04-29T11:02:51.144Z,1.50
2019-04-29T11:08:38.182Z,1.03
2019-04-29T11:14:17.354Z,0.87
2019-04-29T11:19:52.101Z,2.10
2019-04-29T11:25:42.161Z,0.80
2019-04-29T11:30:55.389Z,0.97
2019-04-29T11:36:25.732Z,0.80
2019-04-29T11:41:59.705Z,1.53
2019-04-29T11:47:02.337Z,1.13
2019-04-29T11:52:09.267Z,1.17
2019-04-29T11:56:56.574Z,0.83
2019-04-29T12:02:11.161Z,2.10
2019-04-29T12:07:07.226Z,3.20
2019-04-29T12:12:07.754Z,1.57
2019-04-29T12:17:20.115Z,1.37
2019-04-29T12:22:28.228Z,2.30
2019-04-29T12:27:14.878Z,1.83
2019-04-29T12:32:28.529Z,2.00
2019-04-29T12:37:45.085Z,0.90
2019-04-29T12:43:03.881Z,1.20
2019-04-29T12:47:59.789Z,1.93
2019-04-29T12:52:55.525Z,2.07
2019-04-29T12:57:51.487Z,1.50
2019-04-29T13:03:01.807Z,2.03
2019-04-29T13:08:04.076Z,1.80
2019-04-29T13:12:59.807Z,2.27
2019-04-29T13:18:23.322Z,1.23
2019-04-29T13:23:19.473Z,1.40
2019-04-29T13:28:12.761Z,0.80
2019-04-29T13:33:16.415Z,2.40
2019-04-29T13:38:06.254Z,1.07
2019-04-29T13:43:02.055Z,1.67
2019-04-29T13:48:26.208Z,1.10
2019-04-29T13:53:21.949Z,1.20
2019-04-29T13:58:22.382Z,0.93
2019-04-29T14:03:20.722Z,1.83
2019-04-29T14:08:16.362Z,0.80
2019-04-29T14:13:16.821Z,0.80
2019-04-29T14:18:11.625Z,0.97
2019-04-29T14:23:07.283Z,2.50
2019-04-29T14:28:03.008Z,1.27
2019-04-29T14:33:01.908Z,0.97
2019-04-29T14:38:04.258Z,1.43
2019-04-29T14:43:28.558Z,2.20
2019-04-29T14:48:19.482Z,2.13
2019-04-29T14:53:14.249Z,0.90
2019-04-29T14:58:09.986Z,1.37
2019-04-29T15:03:06.733Z,1.03
2019-04-29T15:08:03.197Z,0.80
2019-04-29T15:13:19.738Z,0.87
2019-04-29T15:18:38.854Z,3.33
2019-04-29T15:23:28.420Z,0.90
2019-04-29T15:28:18.987Z,0.90
2019-04-29T15:33:14.835Z,0.93
2019-04-29T15:38:13.366Z,1.50
2019-04-29T15:43:09.331Z,2.03
2019-04-29T15:48:05.163Z,1.27
2019-04-29T15:53:02.976Z,1.20
2019-04-29T15:57:58.831Z,2.60
2019-04-29T16:02:54.556Z,2.10
2019-04-29T16:08:03.334Z,1.33
2019-04-29T16:13:02.902Z,1.40
2019-04-29T16:17:58.899Z,1.10
2019-04-29T16:23:00.520Z,0.90
2019-04-29T16:27:53.329Z,4.23
2019-04-29T16:32:49.359Z,0.97
2019-04-29T16:37:45.188Z,1.40
2019-04-29T16:43:02.887Z,2.30
2019-04-29T16:47:59.316Z,2.07
2019-04-29T16:52:55.106Z,1.60
2019-04-29T16:57:50.953Z,1.70
2019-04-29T17:02:46.686Z,2.30
2019-04-29T17:07:42.393Z,2.30
2019-04-29T17:12:42.507Z,3.50
2019-04-29T17:17:38.150Z,1.60
2019-04-29T17:22:35.726Z,2.93
2019-04-29T17:27:50.702Z,3.13
2019-04-29T17:33:01.459Z,2.93
2019-04-29T17:37:57.794Z,1.67
2019-04-29T17:43:04.838Z,1.60
2019-04-29T17:48:13.560Z,3.60
2019-04-29T17:53:19.608Z,2.43
2019-04-29T17:58:22.263Z,3.03
2019-04-29T18:03:41.311Z,2.60
2019-04-29T18:08:46.992Z,1.40
2019-04-29T18:13:43.654Z,1.50
2019-04-29T18:18:57.299Z,3.27
2019-04-29T18:24:10.120Z,2.37
2019-04-29T18:29:08.058Z,3.47
2019-04-29T18:34:05.463Z,3.23
2019-04-29T18:39:01.404Z,5.17
2019-04-29T18:44:02.902Z,5.93
2019-04-29T18:49:03.009Z,2.63
2019-04-29T18:53:55.596Z,1.30
2019-04-29T18:58:51.632Z,1.20
2019-04-29T19:04:10.249Z,1.27
2019-04-29T19:09:17.213Z,1.30
2019-04-29T19:14:05.200Z,1.30
2019-04-29T19:19:01.865Z,1.60
2019-04-29T19:24:00.762Z,1.43
2019-04-29T19:29:01.401Z,1.33
2019-04-29T19:34:02.514Z,2.10
2019-04-29T19:38:58.289Z,2.83
2019-04-29T19:43:55.290Z,3.23
2019-04-29T19:48:53.186Z,4.00
2019-04-29T19:53:49.657Z,4.33
2019-04-29T19:58:45.797Z,5.57
2019-04-29T20:04:06.577Z,3.67
2019-04-29T20:09:14.605Z,3.20
2019-04-29T20:14:08.594Z,6.57
2019-04-29T20:19:22.712Z,4.87
2019-04-29T20:24:23.241Z,3.77
2019-04-29T20:29:16.285Z,2.17
2019-04-29T20:34:12.697Z,2.53
2019-04-29T20:39:15.233Z,1.60
2019-04-29T20:44:09.281Z,2.83
2019-04-29T20:49:05.826Z,5.50
2019-04-29T20:54:09.074Z,3.97
2019-04-29T20:59:12.462Z,2.83
2019-04-29T21:04:05.844Z,3.17
2019-04-29T21:09:01.763Z,3.93
2019-04-29T21:14:17.942Z,2.67
2019-04-29T21:19:15.378Z,5.70
2019-04-29T21:24:17.486Z,2.63
2019-04-29T21:29:10.708Z,2.93
2019-04-29T21:34:09.147Z,4.67
2019-04-29T21:39:36.472Z,3.37
2019-04-29T21:44:31.601Z,6.43
2019-04-29T21:49:27.650Z,3.10
2019-04-29T21:54:24.440Z,2.60
2019-04-29T21:59:20.092Z,3.33
2019-04-29T22:04:16.916Z,5.03
2019-04-29T22:09:13.557Z,3.20
2019-04-29T22:14:09.877Z,2.80
2019-04-29T22:19:06.692Z,2.27
2019-04-29T22:24:02.349Z,1.60
2019-04-29T22:29:03.149Z,2.60
2019-04-29T22:33:57.332Z,3.07
2019-04-29T22:38:52.555Z,3.50
2019-04-29T22:43:56.603Z,2.90
2019-04-29T22:48:53.357Z,2.43
2019-04-29T22:53:48.957Z,2.50
2019-04-29T22:58:46.989Z,3.37
2019-04-29T23:03:42.013Z,3.73
2019-04-29T23:08:38.220Z,3.10
2019-04-29T23:13:35.487Z,4.10
2019-04-29T23:18:40.947Z,3.20
2019-04-29T23:23:38.099Z,2.03
2019-04-29T23:28:32.775Z,2.97
2019-04-29T23:33:28.345Z,1.77
2019-04-29T23:38:25.556Z,2.20
2019-04-29T23:43:25.286Z,1.60
2019-04-29T23:48:19.876Z,1.53
2019-04-29T23:53:16.008Z,2.20
2019-04-29T23:58:32.620Z,2.10
